Date,TemperatureHighF,TemperatureAvgF,TemperatureLowF,DewpointHighF,DewpointAvgF,DewpointLowF,HumidityHigh,HumidityAvg,HumidityLow,PressureMaxIn,PressureMinIn,WindSpeedMaxMPH,WindSpeedAvgMPH,GustSpeedMaxMPH,PrecipitationSumIn
2013-1-1,73.7,64.2,54.4,62.0,58.5,53.0,97,82,65,30.22,30.04,11,2,17,0.00
2013-1-2,70.4,66.8,63.5,68.0,65.1,62.0,98,94,86,30.07,30.01,10,3,13,0.00
2013-1-3,74.9,64.9,59.0,69.0,63.5,58.0,99,95,74,30.16,30.03,17,2,17,0.22
2013-1-4,60.7,58.3,55.4,59.0,57.3,55.0,98,96,90,30.28,30.16,9,2,10,0.07
2013-1-5,72.8,62.8,55.2,63.0,58.5,53.0,97,86,70,30.30,30.19,6,1,9,0.00
2013-1-6,73.7,66.0,61.4,69.0,64.0,60.0,98,93,83,30.19,30.08,10,2,12,0.04
2013-1-7,66.3,62.7,59.6,64.0,60.0,57.0,96,90,79,30.21,30.11,7,2,11,0.04
2013-1-8,83.4,70.6,60.7,70.0,65.4,60.0,97,85,62,30.22,30.12,4,0,9,0.00
2013-1-9,85.8,74.2,68.1,72.0,68.9,67.0,97,85,58,30.28,30.16,7,1,11,0.00
2013-1-10,84.1,73.7,67.4,70.0,67.4,64.0,97,82,57,30.28,30.20,5,1,13,0.00
2013-1-11,78.5,70.9,65.4,68.0,65.7,63.0,95,84,65,30.26,30.14,11,2,15,0.00
2013-1-12,80.8,71.3,66.0,70.0,67.2,64.0,95,87,66,30.18,30.08,11,1,15,0.00
2013-1-13,76.3,70.3,66.1,69.0,66.2,64.0,94,87,76,30.17,30.06,10,1,14,0.00
2013-1-14,77.0,69.6,62.2,66.0,63.6,61.0,96,82,64,30.18,30.11,9,2,14,0.00
2013-1-15,75.6,68.6,60.6,69.0,64.8,59.0,96,88,74,30.15,30.06,13,2,14,0.00
2013-1-16,75.1,67.1,64.0,68.0,64.9,63.0,97,93,77,30.11,30.04,7,2,13,0.01
2013-1-27,69.2,66.9,64.8,59.0,58.6,57.0,80,74,68,30.29,30.28,1,0,6,0.01
2013-1-28,79.1,68.8,62.2,66.0,63.4,59.0,95,83,59,30.32,30.21,5,1,12,0.00
2013-1-29,77.1,69.5,62.2,69.0,65.4,61.0,96,87,72,30.23,30.09,13,4,17,0.00
2013-1-30,74.9,71.2,66.8,68.0,66.9,64.0,94,86,77,30.09,29.92,27,11,32,0.00
2013-1-31,69.8,56.9,46.1,68.0,48.6,37.0,97,75,48,30.25,29.92,21,9,30,0.08
2013-2-1,63.6,54.4,44.3,48.0,40.0,34.0,84,61,34,30.37,30.23,12,4,17,0.00
2013-2-2,65.6,56.2,46.8,53.0,45.3,38.0,85,68,36,30.31,30.17,10,2,11,0.00
2013-2-3,64.8,55.8,45.1,57.0,50.5,43.0,95,83,69,30.21,30.11,12,3,15,0.00
2013-2-4,65.8,56.2,46.5,53.0,46.0,35.0,92,71,32,30.15,30.06,8,1,12,0.00
2013-2-5,69.9,59.3,47.1,61.0,51.7,44.0,88,77,54,30.10,30.02,11,1,12,0.00
2013-2-6,74.1,66.6,59.7,66.0,60.6,57.0,92,82,62,30.11,30.03,9,1,13,0.00
2013-2-7,74.6,67.9,62.6,67.0,64.4,61.0,95,88,71,30.06,29.85,28,8,46,0.11
2013-2-8,70.2,65.6,59.2,67.0,62.3,57.0,96,89,76,30.09,29.91,17,7,17,0.00
2013-2-9,77.5,64.3,55.9,61.0,56.0,53.0,96,77,46,30.20,30.08,7,2,11,0.01
2013-2-10,78.7,68.6,61.8,65.0,61.3,57.0,88,78,60,30.24,30.14,13,2,18,0.00
2013-2-11,75.5,69.2,63.5,69.0,64.9,61.0,93,86,73,30.20,30.09,18,5,21,0.00
2013-2-12,74.1,70.5,68.3,71.0,68.6,67.0,98,93,88,30.10,29.96,17,9,24,0.00
2013-2-13,72.7,68.6,58.9,71.0,67.4,56.0,98,96,83,30.00,29.87,16,9,23,0.18
2013-2-14,64.2,61.2,58.9,61.0,59.1,56.0,97,93,80,30.06,29.94,19,2,19,0.45
2013-2-15,63.3,58.9,55.5,60.0,55.4,52.0,97,88,76,30.09,29.98,10,3,14,0.03
2013-2-16,63.7,57.1,49.9,55.0,49.6,40.0,93,77,56,30.14,29.96,27,10,34,0.00
2013-2-17,54.0,46.0,39.2,40.0,30.1,21.0,77,55,43,30.36,30.15,23,7,26,0.00
2013-2-18,50.7,39.5,36.1,37.0,33.2,30.0,86,79,46,30.37,30.33,0,0,6,0.00
2013-3-5,67.7,58.7,64.3,61.0,42.2,-99.9,89,72,76,30.12,0.00,7,-107,15,0.00
2013-3-30,68.6,66.2,62.3,60.0,58.9,56.0,87,77,66,30.19,30.16,8,4,11,0.00
2013-3-31,71.8,64.7,55.8,64.0,59.1,53.0,93,82,67,30.16,30.02,14,5,17,0.00
2013-4-1,71.8,69.1,66.6,69.0,66.6,64.0,96,91,87,30.05,29.98,11,5,14,0.00
2013-4-2,70.8,67.9,64.4,67.0,64.9,62.0,97,90,82,30.11,30.02,7,2,9,0.00
2013-4-3,77.1,70.4,62.2,70.0,66.8,61.0,96,88,74,30.09,29.95,13,4,19,0.07
2013-4-4,73.4,69.7,66.9,70.0,67.4,65.0,96,92,78,30.06,29.87,15,5,21,0.20
2013-4-5,69.0,66.7,62.6,67.0,62.5,58.0,94,87,71,30.01,29.82,20,10,25,0.20
2013-4-6,69.0,63.0,56.3,62.0,57.3,52.0,90,82,66,30.11,30.01,13,5,16,0.00
2013-4-7,79.3,70.2,60.2,66.0,60.9,58.0,95,74,49,30.16,30.06,9,2,11,0.00
2013-4-8,85.0,72.1,65.5,68.0,62.6,59.0,88,73,42,30.13,30.05,6,1,12,0.00
2013-4-9,84.5,73.1,64.5,68.0,65.2,62.0,94,77,55,30.15,30.07,12,1,16,0.00
2013-4-10,81.2,74.2,65.2,71.0,66.8,63.0,94,78,60,30.11,29.97,8,2,19,0.00
2013-4-11,82.2,76.0,71.3,74.0,71.4,66.0,95,86,73,29.99,29.82,18,7,23,0.01
2013-4-12,76.8,75.3,71.4,74.0,72.8,69.0,95,92,84,29.93,29.79,23,10,33,0.00
2013-4-13,76.4,73.1,69.0,71.0,68.5,66.0,95,86,77,29.99,29.89,9,3,11,0.00
2013-4-14,79.1,74.0,69.0,75.0,69.6,62.0,93,86,73,30.01,29.87,24,6,36,0.00
2013-4-15,80.2,74.8,68.2,72.0,67.7,62.0,85,78,69,30.07,29.94,11,4,19,0.00
2013-4-16,91.3,78.6,68.5,75.0,70.6,66.0,95,78,51,30.13,30.03,7,2,14,0.00
2013-4-17,87.2,78.1,69.2,71.0,66.5,62.0,92,70,44,30.14,30.02,8,1,13,0.00
2013-4-18,82.0,76.7,69.3,74.0,70.1,66.0,91,80,69,30.04,29.95,13,4,14,0.00
2013-4-19,81.4,77.5,73.1,76.0,73.6,71.0,93,88,78,30.01,29.94,23,8,27,0.00
2013-4-20,76.8,69.8,62.6,75.0,65.0,59.0,93,85,74,30.15,29.98,17,5,26,0.04
2013-4-21,82.4,69.7,60.7,71.0,64.6,58.0,94,84,66,30.14,30.03,14,2,16,0.02
2013-4-22,78.9,72.3,67.8,71.0,67.9,64.0,97,86,69,30.08,29.98,8,2,12,0.03
2013-4-23,81.8,72.8,66.0,70.0,65.7,62.0,91,79,58,30.11,30.02,13,3,14,0.00
2013-4-24,79.6,72.1,63.3,70.0,65.2,61.0,93,79,61,30.14,30.07,11,3,16,0.00
2013-4-25,78.3,72.9,64.9,71.0,67.3,63.0,95,83,70,30.22,30.11,13,4,15,0.00
2013-4-26,79.6,73.7,66.0,72.0,67.6,64.0,92,81,69,30.25,30.15,12,3,13,0.00
2013-4-27,84.8,76.0,68.8,72.0,68.1,64.0,94,77,51,30.22,30.08,14,3,14,0.00
2013-4-28,83.2,75.0,68.4,71.0,67.1,64.0,87,76,54,30.12,29.97,10,3,18,0.00
2013-4-29,80.5,75.3,69.7,73.0,69.2,63.0,90,81,71,30.02,29.91,14,5,17,0.01
2013-4-30,83.1,76.4,69.7,75.0,70.9,68.0,96,84,63,30.00,29.91,8,2,13,0.22
2013-5-1,74.5,71.1,66.9,73.0,69.1,66.0,97,93,88,30.00,29.91,12,0,16,1.06
2013-5-2,77.4,71.9,66.5,72.0,68.7,65.0,96,90,81,29.97,29.82,7,1,9,1.06
2013-5-3,76.6,73.2,69.1,71.0,69.5,66.0,96,88,78,29.83,29.73,14,4,17,0.42
2013-5-4,75.2,71.6,66.9,71.0,68.0,65.0,95,88,81,29.83,29.70,20,7,25,0.01
2013-5-5,71.4,69.0,65.2,68.0,59.6,53.0,94,73,56,29.95,29.81,19,12,26,0.01
2013-5-6,72.1,68.6,66.1,66.0,60.1,57.0,81,74,68,30.02,29.91,15,9,19,0.00
2013-5-7,72.7,69.8,66.0,66.0,61.0,58.0,81,74,68,30.07,29.98,12,7,16,0.00
2013-5-8,73.8,70.8,65.2,66.0,63.1,60.0,85,77,69,30.15,30.04,10,3,12,0.00
2013-5-9,76.2,71.7,65.3,69.0,65.6,62.0,92,81,67,30.16,30.09,12,3,13,0.00
2013-5-10,81.2,74.6,64.8,74.0,68.9,63.0,96,83,63,30.14,30.01,11,2,17,0.00
2013-5-11,80.0,76.5,72.4,77.0,73.7,69.0,95,91,86,30.06,30.00,12,4,15,0.00
2013-5-12,79.1,76.0,71.9,75.0,72.0,70.0,98,87,76,30.06,29.95,11,4,14,0.00
2013-5-13,78.5,74.2,68.2,71.0,62.9,54.0,90,69,45,30.14,30.02,18,6,23,0.00
2013-5-14,79.6,70.9,60.2,61.0,51.8,43.0,74,53,29,30.22,30.12,18,4,20,0.00
2013-5-15,84.6,72.1,62.5,66.0,60.5,55.0,88,68,36,30.21,30.07,13,2,15,0.00
2013-5-16,78.2,73.7,66.8,70.0,65.7,62.0,88,76,61,30.14,30.01,9,4,14,0.00
2013-5-17,79.0,75.2,68.7,71.0,68.2,64.0,89,79,69,30.10,30.03,10,4,11,0.00
2013-5-18,80.6,76.3,71.4,74.0,71.0,68.0,94,84,67,30.11,30.03,8,3,11,0.00
2013-5-19,81.9,77.6,71.6,73.0,70.5,68.0,94,79,65,30.10,29.99,9,2,13,0.00
2013-5-20,85.1,78.1,73.2,76.0,71.1,67.0,87,79,59,30.07,29.98,14,3,20,0.00
2013-5-21,82.1,76.4,70.6,73.0,71.0,69.0,96,84,70,30.03,29.93,8,2,13,0.00
2013-5-22,81.4,76.7,72.0,74.0,71.8,69.0,91,85,73,29.98,29.89,13,3,17,0.00
2013-5-23,80.7,78.0,73.3,76.0,73.5,71.0,94,86,77,30.02,29.92,13,6,16,0.00
2013-5-24,85.9,80.4,76.6,78.0,73.3,67.0,90,79,54,30.08,29.99,15,7,16,0.00
2013-5-25,91.7,82.0,72.7,74.0,66.9,62.0,83,62,38,30.17,30.06,6,2,11,0.00
2013-5-26,86.5,77.2,69.7,65.0,60.1,53.0,80,58,32,30.21,30.10,6,1,10,0.00
2013-5-27,89.6,78.7,68.7,68.0,65.0,63.0,87,65,43,30.18,30.04,10,1,13,0.00
2013-5-28,90.7,78.7,72.2,75.0,71.2,68.0,90,79,55,30.14,30.02,7,2,14,0.02
2013-5-29,88.2,79.8,73.4,73.0,71.7,70.0,92,77,57,30.09,30.01,9,2,15,0.02
2013-5-30,88.5,80.8,75.8,74.0,72.4,70.0,90,76,61,30.07,29.99,10,2,16,0.00
2013-5-31,87.9,79.5,74.4,77.0,72.5,70.0,91,79,64,30.07,30.00,8,2,13,0.30
2013-6-1,86.7,78.6,74.4,77.0,74.1,72.0,97,86,69,30.05,29.95,8,2,13,1.74
2013-6-2,83.3,78.4,72.9,78.0,75.2,72.0,98,90,77,29.99,29.90,12,3,14,1.74
2013-6-3,81.9,79.9,78.2,77.0,75.8,75.0,90,87,82,30.00,29.90,14,6,18,0.00
2013-6-4,83.6,80.0,76.6,76.0,74.5,73.0,91,83,72,30.01,29.94,14,5,19,0.00
2013-6-5,84.8,77.9,73.4,75.0,73.6,72.0,95,87,71,30.00,29.89,9,1,14,0.47
2013-6-6,79.9,76.6,73.7,77.0,74.1,72.0,98,92,83,29.89,29.66,26,11,40,0.16
2013-6-7,81.6,79.1,77.3,77.0,75.0,73.0,90,87,82,29.96,29.79,11,6,13,0.16
2013-6-8,82.8,78.8,72.3,79.0,75.4,71.0,97,89,83,30.10,29.97,11,5,15,1.11
2013-6-9,86.2,78.9,72.4,78.0,74.5,72.0,97,87,69,30.09,30.02,9,2,14,1.12
2013-6-10,84.9,80.6,76.5,78.0,75.9,73.0,94,85,76,30.09,30.02,11,3,15,0.00
2013-6-11,87.8,80.5,76.5,79.0,75.9,72.0,96,86,65,30.10,30.02,8,1,16,0.28
2013-6-12,87.0,80.7,74.0,79.0,75.2,72.0,96,84,67,30.09,30.01,10,2,13,0.01
2013-6-13,84.4,81.7,77.9,77.0,76.2,75.0,94,83,74,30.05,29.92,9,4,12,0.01
2013-6-14,83.7,82.0,80.9,77.0,76.1,75.0,85,82,77,29.96,29.89,12,6,16,0.00
2013-6-15,84.6,82.3,80.1,79.0,77.2,74.0,88,85,79,30.05,29.92,9,4,14,0.00
2013-6-16,86.0,82.1,78.0,80.0,77.5,76.0,93,86,77,30.08,30.02,11,3,12,0.00
2013-6-17,86.5,83.1,77.3,79.0,77.0,75.0,93,82,71,30.07,29.99,9,3,11,0.00
2013-6-18,86.2,83.2,77.6,79.0,77.1,75.0,91,82,75,30.06,29.98,7,3,14,0.00
2013-6-19,87.1,84.4,80.4,79.0,77.9,75.0,89,81,72,30.04,29.98,10,4,13,0.00
2013-6-20,88.1,82.4,77.6,78.0,75.9,71.0,92,80,64,30.11,30.01,10,2,12,0.00
2013-6-21,86.1,80.2,75.3,78.0,74.0,71.0,91,81,69,30.11,30.04,8,2,13,0.00
2013-6-22,86.6,80.2,73.7,77.0,73.3,71.0,94,80,62,30.12,30.05,11,2,14,0.04
2013-6-23,87.1,79.5,75.2,78.0,74.8,73.0,94,86,68,30.13,30.05,9,1,21,0.09
2013-6-24,92.7,82.7,76.0,78.0,75.1,72.0,93,79,51,30.18,30.05,9,2,15,0.21
2013-6-25,91.7,81.4,73.5,79.0,75.0,69.0,96,82,53,30.15,30.02,10,2,14,0.31
2013-6-26,86.3,79.6,75.0,78.0,75.8,73.0,97,88,73,30.07,30.00,13,2,18,0.82
2013-6-27,86.1,81.1,74.3,79.0,76.2,72.0,96,85,75,30.05,29.94,7,2,14,0.82
2013-6-28,85.3,83.9,82.8,79.0,77.4,76.0,84,80,76,29.98,29.85,12,6,15,0.00
2013-6-29,83.8,82.1,77.2,79.0,76.4,73.0,90,83,77,29.89,29.81,17,7,27,0.01
2013-6-30,85.7,82.7,76.1,79.0,77.2,74.0,94,83,74,29.89,29.80,16,9,27,0.19
2013-7-1,82.7,77.1,71.8,78.0,74.7,70.0,98,92,84,29.98,29.84,19,7,27,1.46
2013-7-2,85.2,78.6,73.0,78.0,74.8,72.0,99,88,76,30.08,29.95,15,4,22,2.64
2013-7-3,86.8,77.5,72.3,78.0,74.5,70.0,97,91,73,30.11,30.03,22,2,28,1.95
2013-7-4,86.9,77.7,73.2,78.0,74.4,71.0,97,90,72,30.15,30.05,14,2,29,0.49
2013-7-5,88.0,76.8,72.5,78.0,74.3,71.0,97,92,71,30.13,30.06,23,1,23,1.48
2013-7-6,90.8,80.9,73.7,79.0,76.0,73.0,97,86,59,30.11,30.02,6,1,15,1.48
2013-7-7,92.3,82.1,76.2,77.0,75.5,74.0,94,81,57,30.13,30.02,5,0,16,0.02
2013-7-8,92.3,82.0,75.8,79.0,75.6,74.0,96,82,57,30.15,30.07,12,1,12,0.02
2013-7-9,90.3,81.6,74.6,79.0,75.1,72.0,95,81,55,30.16,30.04,14,2,17,0.02
2013-7-10,85.7,79.9,75.0,77.0,74.5,72.0,94,84,73,30.09,29.96,10,2,14,0.06
2013-7-11,83.4,77.6,75.0,77.0,75.2,74.0,96,92,80,30.03,29.98,10,1,14,0.18
2013-7-14,86.3,79.7,74.6,78.0,75.4,73.0,94,87,72,30.07,30.01,9,1,11,1.05
2013-7-15,89.9,80.4,74.7,78.0,74.0,72.0,94,82,58,30.11,30.01,11,1,14,1.05
2013-7-16,90.6,78.7,75.2,76.0,73.7,72.0,93,85,57,30.15,30.07,5,0,16,0.16
2013-7-17,90.7,77.6,71.2,77.0,73.7,69.0,97,89,60,30.15,30.07,9,0,12,0.99
2013-7-18,86.3,77.3,72.9,76.0,74.0,72.0,97,90,68,30.11,30.04,13,1,21,0.94
2013-7-19,84.4,77.0,73.2,79.0,74.5,72.0,98,92,79,30.12,30.04,15,2,23,0.21
2013-7-20,86.2,79.1,73.6,79.0,75.4,72.0,97,88,72,30.11,30.02,9,1,12,0.21
2013-7-21,85.8,81.6,75.6,80.0,77.6,74.0,96,88,78,30.12,30.04,9,3,12,0.00
2013-7-22,85.4,83.7,82.2,80.0,78.6,78.0,88,84,81,30.14,30.06,10,4,12,0.00
2013-7-23,84.4,83.3,82.2,79.0,77.5,76.0,86,82,79,30.09,29.98,12,5,13,0.00
2013-7-24,84.8,83.5,81.9,79.0,77.9,77.0,87,83,79,30.01,29.92,14,8,16,0.01
2013-7-25,84.6,83.6,79.1,80.0,78.4,76.0,89,84,78,30.01,29.89,17,9,23,0.01
2013-7-26,86.0,82.5,77.9,80.0,78.3,76.0,93,87,79,30.02,29.95,13,4,23,0.37
2013-7-27,86.5,83.7,80.3,79.0,77.5,75.0,92,82,68,30.01,29.93,11,4,17,0.00
2013-7-28,85.7,82.7,77.5,79.0,76.4,74.0,92,81,72,30.05,29.94,7,1,10,0.00
2013-7-29,87.5,81.8,75.8,79.0,75.6,73.0,93,82,68,30.14,30.02,7,1,9,0.00
2013-7-30,90.0,82.5,76.6,80.0,76.8,74.0,96,83,66,30.17,30.06,8,2,15,0.31
2013-7-31,92.2,82.3,76.8,80.0,76.7,73.0,97,84,54,30.14,30.01,7,1,10,0.31
2013-8-1,87.1,82.4,78.1,79.0,76.3,73.0,91,82,71,30.05,29.95,7,1,11,0.00
2013-8-2,87.3,82.5,75.9,79.0,76.5,73.0,93,82,72,30.05,29.95,7,1,11,0.01
2013-8-3,87.4,85.5,83.9,79.0,77.9,77.0,84,78,72,30.10,30.00,11,4,12,0.01
2013-8-4,86.6,85.4,82.6,80.0,78.9,77.0,84,81,75,30.09,30.00,10,3,14,0.00
2013-8-5,87.1,85.7,84.2,81.0,79.4,78.0,85,81,76,30.03,29.94,11,5,15,0.00
2013-8-6,86.9,82.8,77.3,81.0,78.1,75.0,92,86,77,29.98,29.89,9,0,13,0.02
2013-8-7,91.7,81.3,73.6,81.0,76.6,71.0,97,86,61,29.96,29.89,12,0,17,1.85
2013-8-8,89.3,80.7,73.7,80.0,76.5,72.0,97,88,68,30.02,29.92,16,2,24,1.03
2013-8-9,90.2,79.1,73.3,79.0,75.5,72.0,98,89,62,30.05,29.96,18,1,21,0.11
2013-8-10,89.3,82.2,74.0,80.0,76.8,73.0,97,84,69,30.12,30.03,11,2,17,0.11
2013-8-11,90.3,84.4,77.3,80.0,77.8,75.0,94,81,67,30.14,30.05,8,2,13,0.00
2013-8-12,90.1,83.5,76.9,82.0,78.6,75.0,95,85,66,30.13,30.00,11,2,12,0.49
2013-8-13,88.1,83.3,76.1,81.0,77.8,75.0,97,84,68,30.05,29.94,9,2,12,0.50
2013-8-14,88.1,84.6,78.4,81.0,78.1,75.0,92,81,74,30.00,29.93,9,1,12,0.00
2013-8-15,87.0,83.4,78.2,80.0,77.7,75.0,91,83,74,30.04,29.95,12,3,16,0.00
2013-8-16,87.1,84.8,81.3,79.0,77.7,75.0,87,79,74,30.04,29.96,13,4,26,0.14
2013-8-17,91.6,82.0,74.6,81.0,76.7,73.0,97,84,60,30.08,29.98,12,2,18,0.09
2013-8-18,90.3,81.0,75.7,80.0,77.0,74.0,96,88,67,30.10,30.01,9,1,14,0.49
2013-8-19,90.8,80.9,75.1,80.0,76.5,74.0,97,87,63,30.07,29.96,9,1,13,0.83
2013-8-20,91.5,81.1,74.5,79.0,76.0,74.0,98,85,61,30.08,29.99,8,1,17,0.84
2013-8-21,94.9,83.4,75.4,80.0,76.5,72.0,95,81,53,30.10,29.96,5,0,12,0.10
2013-8-26,90.0,84.5,75.0,78.0,75.3,73.0,94,75,57,30.10,30.01,12,2,17,0.20
2013-8-27,91.3,80.3,74.1,78.0,75.2,72.0,97,85,54,30.05,29.97,12,1,20,0.21
2013-8-28,89.6,80.2,72.8,77.0,74.4,71.0,96,83,56,30.06,29.97,11,2,16,0.01
2013-8-29,87.5,81.3,73.4,78.0,74.7,71.0,93,81,66,30.04,29.95,13,4,18,0.01
2013-8-30,86.7,82.1,76.3,80.0,76.8,73.0,93,84,72,30.00,29.90,8,1,10,0.37
2013-8-31,86.4,81.3,74.6,77.0,75.5,73.0,94,83,72,29.99,29.89,16,1,22,1.21
2013-9-1,86.5,82.5,75.7,80.0,76.2,74.0,95,81,71,29.99,29.92,7,2,13,0.09
2013-9-2,86.6,82.6,76.5,78.0,76.8,75.0,96,83,73,30.02,29.93,9,2,11,0.02
2013-9-3,86.9,83.5,76.0,81.0,76.8,74.0,96,80,71,30.03,29.94,7,2,10,0.12
2013-9-4,91.6,82.4,75.7,79.0,76.2,73.0,95,82,60,30.09,29.97,16,1,25,0.05
2013-9-5,92.0,81.7,76.1,81.0,76.2,72.0,95,84,60,30.09,29.99,12,1,25,0.06
2013-9-6,87.8,80.2,73.5,81.0,76.7,72.0,96,89,70,30.06,29.94,10,1,16,0.93
2013-9-7,87.5,79.0,72.0,77.0,73.7,71.0,96,84,64,30.02,29.92,11,2,13,0.14
2013-9-8,88.3,80.2,72.7,77.0,74.3,72.0,97,83,61,29.97,29.87,13,2,14,0.15
2013-9-9,92.7,83.5,74.9,77.0,73.8,71.0,95,74,51,30.02,29.93,12,0,13,0.00
2013-9-10,92.2,83.6,76.2,76.0,73.5,69.0,93,73,50,30.08,29.99,5,0,12,0.00
2013-9-11,92.9,83.6,76.3,77.0,73.5,70.0,91,73,48,30.07,29.98,4,0,11,0.00
2013-9-12,86.2,80.7,75.5,78.0,75.1,72.0,94,83,71,30.02,29.89,7,1,10,0.00
2013-9-13,85.8,79.8,73.9,78.0,74.9,72.0,95,85,71,29.91,29.82,7,1,11,0.00
2013-9-14,87.0,81.7,75.9,78.0,75.8,74.0,94,82,71,29.98,29.84,10,1,11,0.00
2013-9-15,94.4,81.1,72.6,80.0,75.0,70.0,93,83,54,30.08,29.95,12,1,21,0.13
2013-9-16,92.8,79.3,74.1,77.0,74.7,73.0,96,87,56,30.07,29.97,13,0,22,0.16
2013-9-17,91.7,79.6,73.5,77.0,74.1,72.0,97,84,56,30.05,29.93,9,0,14,0.17
2013-9-18,90.8,79.4,74.0,79.0,74.8,72.0,96,86,62,30.03,29.95,6,0,12,0.68
2013-9-19,89.9,79.6,74.2,78.0,74.8,73.0,96,86,61,30.05,29.96,7,0,13,0.57
2013-9-20,89.8,80.5,72.8,75.0,72.9,70.0,97,79,53,30.02,29.89,3,0,9,0.57
2013-9-21,84.3,79.8,72.5,78.0,72.7,69.0,91,79,67,29.94,29.78,11,3,11,0.00
2013-9-22,84.1,82.5,79.9,79.0,77.4,75.0,91,84,78,29.85,29.76,17,4,20,0.01
2013-9-23,80.5,78.3,76.1,79.0,76.6,75.0,97,94,89,29.94,29.82,8,1,20,0.37
2013-9-24,81.5,78.8,75.3,79.0,76.5,74.0,98,93,84,29.96,29.84,17,8,21,2.07
2013-9-25,81.5,77.4,69.8,79.0,74.8,69.0,98,91,81,29.93,29.80,18,7,48,2.44
2013-9-26,83.8,81.2,76.2,79.0,77.2,73.0,95,88,78,29.88,29.79,14,7,17,0.16
2013-9-27,85.4,77.0,70.4,75.0,71.2,69.0,95,83,62,29.97,29.87,9,1,12,0.00
2013-9-28,87.9,78.8,71.9,75.0,72.3,70.0,95,81,59,30.00,29.92,7,1,13,0.00
2013-9-29,85.8,78.7,71.4,74.0,71.1,67.0,93,78,54,30.00,29.90,11,1,12,0.00
2013-9-30,85.3,79.2,72.2,75.0,73.1,71.0,95,82,68,29.99,29.91,7,1,11,0.00
2013-10-1,92.0,81.7,73.8,76.0,73.1,70.0,95,77,51,30.04,29.95,5,0,12,0.00
2013-10-2,90.6,81.1,73.8,75.0,72.8,71.0,92,76,58,30.05,29.97,6,0,8,0.00
2013-10-3,89.9,80.8,74.0,75.0,72.5,71.0,92,77,55,30.07,29.97,7,0,9,0.00
2013-10-4,88.8,80.9,76.2,76.0,74.3,71.0,92,81,58,30.09,30.00,8,0,9,0.00
2013-10-5,88.8,80.3,74.0,76.0,73.4,71.0,93,80,59,30.06,29.94,12,2,14,0.00
2013-10-6,84.5,79.4,73.0,77.0,74.5,72.0,97,85,69,29.99,29.87,8,2,10,0.00
2013-10-7,83.3,80.5,74.6,79.0,76.6,73.0,96,88,81,29.87,29.76,20,8,23,0.03
2013-10-8,82.0,80.4,76.0,78.0,75.8,71.0,89,86,79,29.96,29.81,15,5,17,0.07
2013-10-9,80.1,74.5,69.7,73.0,69.7,67.0,90,85,72,30.05,29.95,9,1,11,0.00
2013-10-10,83.2,74.1,66.4,73.0,68.3,65.0,95,83,62,30.06,29.97,9,1,11,0.00
2013-10-11,83.6,75.6,67.1,72.0,68.2,65.0,96,79,61,30.05,29.96,8,1,11,0.00
2013-10-12,82.6,75.5,67.4,70.0,66.4,63.0,94,74,51,30.05,29.98,13,2,15,0.00
2013-10-13,86.1,75.8,65.5,71.0,64.9,61.0,94,71,46,30.09,29.99,5,0,10,0.00
2013-10-14,83.1,74.6,68.1,73.0,67.9,65.0,95,80,56,30.05,29.94,15,2,16,0.00
2013-10-15,78.8,72.7,67.9,73.0,69.4,66.0,95,89,81,30.01,29.91,12,1,14,0.00
2013-10-16,79.6,73.6,68.3,73.0,69.7,67.0,97,88,72,29.98,29.91,9,1,10,0.00
2013-10-17,80.9,75.9,69.7,75.0,71.7,69.0,97,87,78,29.99,29.90,5,0,8,0.00
2013-10-18,83.5,77.6,71.1,76.0,73.2,70.0,97,86,72,29.98,29.90,8,0,9,0.00
2013-10-19,82.5,78.0,73.2,78.0,75.0,72.0,95,90,82,29.96,29.88,5,0,10,0.00
2013-10-20,83.1,78.5,74.5,77.0,74.5,73.0,97,88,74,29.96,29.88,0,0,4,0.00
2013-10-21,82.7,78.3,73.5,76.0,74.3,72.0,96,87,77,30.00,29.93,6,0,8,0.00
2013-10-22,82.7,76.7,72.2,78.0,74.1,71.0,98,92,83,29.95,29.83,16,3,19,0.45
2013-10-23,79.5,74.7,69.0,75.0,66.4,57.0,97,76,53,30.02,29.82,14,4,19,0.45
2013-10-24,72.2,67.2,60.9,61.0,52.5,45.0,81,60,42,30.18,30.01,8,0,12,0.00
2013-10-25,78.1,66.8,58.0,61.0,57.3,51.0,94,74,45,30.25,30.15,14,2,15,0.00
2013-10-26,75.2,67.2,59.9,63.0,58.7,55.0,90,75,52,30.22,30.10,12,2,14,0.00
2013-10-27,79.7,67.1,58.3,64.0,58.3,55.0,95,75,48,30.13,30.06,7,0,9,0.00
2013-10-28,78.8,68.7,59.2,64.0,59.4,56.0,91,74,46,30.20,30.09,11,1,12,0.00
2013-10-29,85.6,73.9,64.7,68.0,65.1,62.0,95,76,49,30.23,30.12,0,0,7,0.00
2013-10-30,86.6,75.4,67.1,70.0,67.3,65.0,94,77,54,30.23,30.09,2,0,9,0.00
2013-10-31,81.5,74.5,66.7,72.0,69.0,65.0,96,83,66,30.13,29.98,10,1,16,0.00
2013-11-1,80.2,76.3,71.5,76.0,73.7,70.0,95,91,85,30.00,29.89,13,4,18,0.00
2013-11-2,77.7,71.4,63.7,76.0,68.8,62.0,96,91,75,30.00,29.82,12,3,26,0.03
2013-11-3,74.5,66.4,59.1,62.0,53.5,46.0,95,66,37,30.13,29.98,8,1,13,0.03
2013-11-4,80.1,69.9,60.1,64.0,59.7,52.0,85,71,53,30.15,30.09,9,1,12,0.00
2013-11-5,82.4,74.2,65.7,71.0,67.4,64.0,93,80,66,30.15,30.05,11,1,14,0.00
2013-11-6,84.7,75.8,71.2,71.0,68.4,67.0,90,79,56,30.11,30.01,8,0,11,0.00
2013-11-7,77.6,71.8,68.3,71.0,68.1,67.0,95,88,75,30.07,29.98,10,1,13,0.00
2013-11-8,78.9,70.9,64.8,69.0,64.2,61.0,95,80,62,30.12,30.01,9,1,12,0.00
2013-11-9,83.1,73.8,64.9,70.0,65.2,61.0,87,75,63,30.16,30.08,6,0,11,0.00
2013-11-10,80.9,72.9,67.1,70.0,66.3,64.0,88,80,64,30.17,30.07,5,0,10,0.00
2013-11-11,84.1,72.9,66.0,70.0,66.8,64.0,94,82,58,30.16,30.06,4,0,7,0.00
2013-11-12,75.2,69.8,65.9,71.0,66.5,59.0,96,89,69,30.12,30.02,11,2,13,0.00
2013-11-13,69.1,61.2,54.3,59.0,51.6,48.0,80,71,63,30.30,30.09,13,2,18,0.00
2013-11-14,77.4,64.3,52.3,60.0,55.1,48.0,90,73,52,30.29,30.16,9,0,14,0.00
2013-11-15,72.0,68.0,63.5,66.0,62.8,59.0,91,84,75,30.18,30.05,1,0,9,0.03
2013-11-16,76.4,71.6,67.7,71.0,68.4,65.0,95,89,80,30.12,30.03,0,0,8,0.06
2013-11-17,78.4,73.3,69.2,72.0,69.0,65.0,94,86,79,30.08,30.00,8,1,13,0.01
2013-11-18,76.3,72.9,68.6,73.0,70.8,68.0,96,93,87,30.03,29.93,5,0,8,0.01
2013-11-19,78.3,73.4,67.8,72.0,69.7,62.0,97,88,75,29.98,29.88,0,0,7,0.01
2013-11-20,80.6,71.7,65.2,72.0,67.7,62.0,92,87,75,30.09,29.97,5,0,10,0.00
2013-11-21,85.4,75.8,71.1,74.0,70.9,69.0,94,85,66,30.17,30.08,6,0,12,0.00
2013-11-22,84.5,76.3,70.4,73.0,69.8,66.0,94,81,63,30.18,30.09,0,0,7,0.00
2013-11-23,78.7,71.0,65.4,70.0,66.7,64.0,96,87,68,30.12,30.02,11,1,13,0.00
2013-11-24,69.9,66.0,59.3,67.0,61.1,53.0,94,84,75,30.22,30.04,10,1,14,0.00
2013-11-25,76.1,68.1,59.4,64.0,59.7,53.0,86,75,62,30.22,30.04,9,0,13,0.00
2013-11-26,78.0,72.7,68.1,73.0,70.2,64.0,96,91,83,30.04,29.77,20,7,30,0.23
2013-11-27,73.0,63.4,47.9,71.0,57.7,41.0,96,82,75,30.22,29.75,26,13,37,0.33
2013-11-28,62.2,49.2,38.7,50.0,41.6,32.0,87,76,51,30.36,30.22,8,1,14,0.00
2013-11-29,71.9,60.5,52.1,58.0,53.8,49.0,92,79,58,30.36,30.27,9,0,12,0.00
2013-11-30,75.0,64.4,55.5,65.0,58.9,51.0,93,83,68,30.32,30.18,5,0,11,0.00
2013-12-1,69.8,62.6,58.3,65.0,60.7,57.0,97,93,85,30.20,30.00,9,0,10,0.00
2013-12-2,68.0,63.0,58.2,63.0,59.0,56.0,98,87,68,29.99,29.86,0,0,3,0.00
2013-12-3,74.8,67.3,59.0,68.0,63.8,58.0,97,88,76,29.98,29.89,12,2,12,0.00
2013-12-4,76.3,71.1,66.7,71.0,68.3,66.0,98,91,80,30.08,29.96,8,1,12,0.01
2013-12-5,77.7,70.8,65.6,70.0,67.4,65.0,96,89,75,30.17,30.08,6,0,10,0.00
2013-12-6,79.0,71.4,65.6,73.0,69.1,65.0,98,92,81,30.17,30.09,14,2,18,0.01
2013-12-7,77.0,71.1,66.5,71.0,68.4,65.0,98,91,79,30.24,30.14,0,0,7,0.01
2013-12-8,80.8,71.7,64.8,72.0,68.1,64.0,99,89,70,30.22,30.10,8,0,13,0.01
2013-12-9,79.4,72.2,66.3,73.0,69.5,65.0,97,91,80,30.18,30.09,12,2,18,0.00
2013-12-10,75.9,71.4,65.6,72.0,69.3,65.0,98,93,87,30.17,30.09,8,0,11,0.01
2013-12-11,78.4,69.9,64.1,70.0,65.7,61.0,94,86,70,30.24,30.15,11,2,15,0.00
2013-12-12,71.8,64.8,55.2,65.0,54.9,38.0,96,74,37,30.31,30.19,11,2,15,0.00
2013-12-13,76.1,63.0,52.2,61.0,53.4,41.0,88,72,49,30.29,30.10,8,1,10,0.00
2013-12-14,79.0,71.9,65.5,72.0,68.1,61.0,95,88,77,30.11,29.95,18,7,23,0.00
2013-12-15,72.4,67.5,61.2,71.0,64.3,58.0,98,90,77,30.12,29.90,17,8,19,0.07
2013-12-16,60.8,55.9,50.7,52.0,47.7,45.0,86,74,64,30.24,30.14,13,4,15,0.00
2013-12-17,69.1,56.3,46.3,54.0,47.9,43.0,91,75,51,30.27,30.16,10,2,10,0.00
2013-12-18,70.6,58.0,48.7,55.0,49.4,44.0,96,76,41,30.30,30.21,10,2,13,0.00
2013-12-19,78.1,60.5,46.9,60.0,52.4,45.0,94,77,45,30.28,30.16,4,0,11,0.01
2013-12-20,80.2,69.7,59.8,69.0,64.1,57.0,93,83,67,30.19,30.09,10,2,17,0.00
2013-12-21,81.6,73.4,67.7,72.0,69.0,66.0,95,86,73,30.13,30.02,14,4,19,0.00
2013-12-22,79.2,73.8,69.0,73.0,70.6,68.0,97,90,80,30.13,30.05,16,5,24,0.00
2013-12-23,77.7,73.2,69.0,74.0,71.3,68.0,97,93,87,30.17,30.10,17,6,23,0.00
2013-12-24,71.5,62.4,53.0,71.0,52.5,36.0,97,73,36,30.27,30.13,20,8,22,0.00
2013-12-25,76.5,61.6,48.3,61.0,51.4,38.0,78,69,58,30.26,30.12,8,1,10,0.00
2013-12-26,77.2,66.2,59.7,64.0,60.2,57.0,91,81,57,30.21,30.10,10,1,11,0.00
2013-12-27,71.3,65.3,61.1,67.0,61.9,58.0,93,89,84,30.25,30.13,7,1,11,0.03
2013-12-28,78.3,70.6,64.3,71.0,67.1,62.0,96,89,77,30.21,29.99,6,0,10,0.00
2013-12-29,72.9,69.3,63.0,71.0,67.5,61.0,97,94,90,30.03,29.89,18,6,31,0.89
2013-12-30,67.6,62.5,59.8,63.0,59.8,57.0,95,91,80,30.20,30.02,12,2,12,0.89
2013-12-31,67.2,63.1,59.7,57.0,54.0,52.0,88,73,60,30.30,30.17,8,0,12,0.00
2014-1-1,63.0,61.1,58.3,62.0,58.5,53.0,97,92,72,30.25,30.05,6,1,13,0.15
2014-1-2,71.2,66.7,61.2,70.0,65.6,57.0,99,96,84,30.05,29.86,27,7,32,0.60